Time;durP1;ratioP1;P1;durP2;ratioP2;P2;SDS_P1;SDS_P2;PMS_P1;PMS_P2;Temp;Humidity;BMP_temperature;BMP_pressure;BME280_temperature;BME280_humidity;BME280_pressure;Samples;Min_cycle;Max_cycle;Signal;HPM_P1;HPM_P2
2022/11/12 00:00:43;;;;;;;45.58;22.95;;;8.60;99.90;;;;;;4992514;28;20092;-69
2022/11/12 00:03:09;;;;;;;45.88;22.75;;;8.70;99.90;;;;;;4992498;28;20536;-68
2022/11/12 00:05:35;;;;;;;41.88;22.77;;;8.70;99.90;;;;;;4992952;28;20057;-70
2022/11/12 00:08:01;;;;;;;52.20;25.17;;;8.80;99.90;;;;;;4990635;28;20270;-70
2022/11/12 00:10:27;;;;;;;47.90;26.95;;;8.90;99.90;;;;;;4992791;28;20033;-70
2022/11/12 00:12:54;;;;;;;52.53;27.45;;;8.90;99.90;;;;;;4992300;28;20065;-69
2022/11/12 00:15:19;;;;;;;54.80;26.40;;;9.00;99.90;;;;;;4984618;28;20093;-70
2022/11/12 00:17:45;;;;;;;52.13;27.25;;;9.00;99.90;;;;;;4991110;28;20050;-70
2022/11/12 00:20:11;;;;;;;51.88;28.33;;;9.10;99.90;;;;;;4991421;28;20031;-70
2022/11/12 00:22:37;;;;;;;62.58;33.05;;;9.10;99.90;;;;;;4987496;28;20451;-70
2022/11/12 00:25:03;;;;;;;62.42;32.63;;;9.20;99.90;;;;;;4990213;28;20162;-72
2022/11/12 00:27:31;;;;;;;68.45;35.55;;;9.20;99.90;;;;;;4981028;28;20030;-70
2022/11/12 00:29:56;;;;;;;63.97;34.22;;;9.20;99.90;;;;;;4984651;28;20022;-70
2022/11/12 00:32:22;;;;;;;68.28;36.28;;;9.30;99.90;;;;;;4987182;28;20399;-69
2022/11/12 00:34:48;;;;;;;70.93;37.08;;;9.30;99.90;;;;;;4986349;28;20158;-70
2022/11/12 00:37:13;;;;;;;64.00;35.85;;;9.40;99.90;;;;;;4978215;28;20476;-69
2022/11/12 00:39:39;;;;;;;72.47;38.00;;;9.40;99.90;;;;;;4974218;28;20033;-69
2022/11/12 00:42:04;;;;;;;70.07;36.83;;;9.40;99.90;;;;;;4976615;28;20054;-72
2022/11/12 00:44:30;;;;;;;74.32;38.92;;;9.50;99.90;;;;;;4986166;28;20089;-70
2022/11/12 00:46:56;;;;;;;73.88;38.45;;;9.50;99.90;;;;;;4976112;28;20023;-70
2022/11/12 00:49:22;;;;;;;73.70;38.90;;;9.50;99.90;;;;;;4980789;28;20097;-70
2022/11/12 00:51:48;;;;;;;73.85;39.42;;;9.60;99.90;;;;;;4988099;28;20038;-71
2022/11/12 00:54:14;;;;;;;70.32;39.28;;;9.60;99.90;;;;;;4977510;28;20023;-72
2022/11/12 00:56:40;;;;;;;75.40;40.50;;;9.60;99.90;;;;;;4985802;28;20030;-71
2022/11/12 00:59:05;;;;;;;66.82;36.90;;;9.60;99.90;;;;;;4978091;28;20129;-70
2022/11/12 01:01:31;;;;;;;75.22;40.08;;;9.60;99.90;;;;;;4978258;28;20029;-69
2022/11/12 01:03:58;;;;;;;69.72;38.33;;;9.70;99.90;;;;;;4980093;28;20053;-70
2022/11/12 01:06:25;;;;;;;71.43;39.35;;;9.60;99.90;;;;;;4975744;28;20081;-70
2022/11/12 01:08:51;;;;;;;71.95;38.85;;;9.60;99.90;;;;;;4977030;28;20058;-71
2022/11/12 01:11:25;;;;;;;71.70;39.45;;;9.70;99.90;;;;;;4990808;28;20073;-69
2022/11/12 01:13:59;;;;;;;71.80;38.93;;;9.70;99.90;;;;;;4972503;28;20422;-70
2022/11/12 01:16:28;;;;;;;70.07;38.60;;;9.70;99.90;;;;;;4979913;28;20582;-69
2022/11/12 01:18:56;;;;;;;69.85;38.45;;;9.70;99.90;;;;;;4979899;28;20026;-69
2022/11/12 01:21:24;;;;;;;66.78;38.03;;;9.70;99.90;;;;;;4975758;28;20403;-69
2022/11/12 01:23:50;;;;;;;66.45;38.97;;;9.70;99.90;;;;;;4987942;28;20023;-70
2022/11/12 01:26:18;;;;;;;65.00;38.13;;;9.70;99.90;;;;;;4987297;28;20606;-69
2022/11/12 01:28:44;;;;;;;66.20;37.78;;;9.70;99.90;;;;;;4980525;28;20041;-69
2022/11/12 01:31:30;;;;;;;71.55;39.25;;;9.70;99.90;;;;;;4986599;28;20026;-70
2022/11/12 01:33:58;;;;;;;72.20;40.22;;;9.70;99.90;;;;;;4982440;28;20471;-69
2022/11/12 01:36:25;;;;;;;70.43;38.47;;;9.70;99.90;;;;;;4982011;28;20027;-69
2022/11/12 01:38:52;;;;;;;70.55;38.75;;;9.70;99.90;;;;;;4982082;28;20056;-70
2022/11/12 01:41:23;;;;;;;68.35;38.53;;;9.80;99.90;;;;;;4972826;28;20045;-70
2022/11/12 01:44:12;;;;;;;71.22;38.58;;;9.80;99.90;;;;;;4981293;28;20050;-69
2022/11/12 01:47:10;;;;;;;68.78;36.55;;;9.80;99.90;;;;;;4989609;28;20030;-69
2022/11/12 01:49:48;;;;;;;66.90;36.15;;;9.80;99.90;;;;;;4982299;28;20035;-69
2022/11/12 01:52:36;;;;;;;73.93;36.92;;;9.80;99.90;;;;;;4980009;28;20030;-69
2022/11/12 01:55:10;;;;;;;72.80;37.67;;;9.80;99.90;;;;;;4976163;28;20042;-73
2022/11/12 01:57:48;;;;;;;67.32;35.08;;;9.80;99.90;;;;;;4981075;28;20027;-70
2022/11/12 02:00:15;;;;;;;64.50;33.97;;;9.80;99.90;;;;;;4987027;28;20030;-71
2022/11/12 02:02:45;;;;;;;67.38;35.90;;;9.80;99.90;;;;;;4980340;28;20035;-70
2022/11/12 02:05:12;;;;;;;78.30;39.78;;;9.90;99.90;;;;;;4969701;28;20045;-69
2022/11/12 02:07:41;;;;;;;79.72;40.70;;;9.80;99.90;;;;;;4970989;28;20495;-70
2022/11/12 02:10:08;;;;;;;88.22;43.88;;;9.80;99.90;;;;;;4988570;28;20018;-72
2022/11/12 02:15:19;;;;;;;73.37;36.97;;;9.90;99.90;;;;;;4986171;28;20034;-69
2022/11/12 02:17:44;;;;;;;69.88;36.22;;;9.90;99.90;;;;;;4982164;28;20034;-69
2022/11/12 02:20:12;;;;;;;73.55;34.25;;;9.90;99.90;;;;;;4974769;28;20030;-70
2022/11/12 02:22:37;;;;;;;65.72;35.50;;;9.90;99.90;;;;;;4990686;28;20485;-70
2022/11/12 02:25:04;;;;;;;68.65;34.72;;;9.90;99.90;;;;;;4989249;28;20105;-69
2022/11/12 02:27:29;;;;;;;68.45;34.22;;;9.90;99.90;;;;;;4977702;28;20030;-70
2022/11/12 02:29:55;;;;;;;74.75;39.30;;;9.90;99.90;;;;;;4990128;28;20038;-71
2022/11/12 02:32:21;;;;;;;76.05;39.63;;;9.90;99.90;;;;;;4984585;28;20038;-70
2022/11/12 02:34:46;;;;;;;72.38;37.03;;;9.90;99.90;;;;;;4983546;28;20395;-69
2022/11/12 02:37:12;;;;;;;71.13;37.35;;;9.90;99.90;;;;;;4976090;28;20039;-69
2022/11/12 02:39:37;;;;;;;86.25;43.50;;;9.90;99.90;;;;;;4985186;28;20038;-71
2022/11/12 02:42:03;;;;;;;86.93;44.08;;;9.90;99.90;;;;;;4985356;28;20058;-73
2022/11/12 02:44:29;;;;;;;88.53;44.17;;;9.90;99.90;;;;;;4977701;28;20331;-69
2022/11/12 02:46:55;;;;;;;84.57;42.95;;;9.90;99.90;;;;;;4980552;28;20360;-71
2022/11/12 02:49:21;;;;;;;90.75;43.47;;;9.80;99.90;;;;;;4982417;28;20058;-69
2022/11/12 02:51:46;;;;;;;83.05;42.35;;;9.90;99.90;;;;;;4980948;28;20515;-71
2022/11/12 02:54:12;;;;;;;85.85;42.65;;;9.80;99.90;;;;;;4982876;28;20027;-69
2022/11/12 02:56:37;;;;;;;84.50;42.88;;;9.80;99.90;;;;;;4972352;28;20030;-71
2022/11/12 02:59:03;;;;;;;85.90;42.95;;;9.80;99.90;;;;;;4976004;28;20033;-69
2022/11/12 03:01:28;;;;;;;84.38;42.85;;;9.80;99.90;;;;;;4972279;28;20022;-69
2022/11/12 03:03:54;;;;;;;91.32;45.20;;;9.80;99.90;;;;;;4974084;28;20103;-70
2022/11/12 03:06:20;;;;;;;90.28;44.67;;;9.80;99.90;;;;;;4990697;28;20138;-70
2022/11/12 03:08:45;;;;;;;90.50;43.08;;;9.80;99.90;;;;;;4988607;28;20069;-71
2022/11/12 03:11:13;;;;;;;89.40;44.22;;;9.80;99.90;;;;;;4973402;28;20078;-70
2022/11/12 03:13:40;;;;;;;84.93;43.67;;;9.80;99.90;;;;;;4984830;28;20038;-70
2022/11/12 03:16:06;;;;;;;93.82;44.72;;;9.80;99.90;;;;;;4980524;28;20030;-69
2022/11/12 03:18:32;;;;;;;88.28;43.80;;;9.80;99.90;;;;;;4986764;28;20104;-70
2022/11/12 03:20:57;;;;;;;88.55;43.63;;;9.80;99.90;;;;;;4990829;28;20026;-70
2022/11/12 03:23:24;;;;;;;91.80;44.25;;;9.90;99.90;;;;;;4982324;28;20048;-69
2022/11/12 03:25:50;;;;;;;93.15;43.63;;;9.80;99.90;;;;;;4983813;28;20114;-70
2022/11/12 03:28:16;;;;;;;96.43;44.30;;;9.80;99.90;;;;;;4992061;28;20097;-70
2022/11/12 03:30:42;;;;;;;92.65;43.75;;;9.80;99.90;;;;;;4989888;28;20081;-70
2022/11/12 03:33:10;;;;;;;86.80;42.90;;;9.90;99.90;;;;;;4979822;28;20386;-70
2022/11/12 03:35:36;;;;;;;88.85;42.42;;;9.80;99.90;;;;;;4985369;28;20091;-70
2022/11/12 03:38:02;;;;;;;89.70;43.53;;;9.80;99.90;;;;;;4988039;28;20034;-71
2022/11/12 03:40:28;;;;;;;89.05;41.10;;;9.90;99.90;;;;;;4978826;28;20438;-71
2022/11/12 03:42:55;;;;;;;86.85;39.28;;;9.90;99.90;;;;;;4990116;28;20398;-70
2022/11/12 03:45:22;;;;;;;86.50;40.58;;;9.90;99.90;;;;;;4991411;28;20038;-69
2022/11/12 03:47:50;;;;;;;76.15;37.55;;;9.90;99.90;;;;;;4984096;28;20038;-70
2022/11/12 03:50:17;;;;;;;82.55;38.25;;;9.90;99.90;;;;;;4985039;28;20471;-70
2022/11/12 03:52:54;;;;;;;73.53;35.47;;;9.80;99.90;;;;;;4979403;28;20475;-70
2022/11/12 03:55:22;;;;;;;72.05;35.35;;;9.80;99.90;;;;;;4980881;28;20053;-70
2022/11/12 03:57:51;;;;;;;71.65;35.10;;;9.80;99.90;;;;;;4982934;28;20428;-70
2022/11/12 04:00:17;;;;;;;64.55;33.63;;;9.80;99.90;;;;;;4983464;28;20062;-70
2022/11/12 04:02:43;;;;;;;65.93;33.85;;;9.70;99.90;;;;;;4989674;28;20033;-70
2022/11/12 04:10:42;;;;;;;60.72;31.55;;;9.70;99.90;;;;;;4976792;28;20037;-70
2022/11/12 04:13:26;;;;;;;58.90;32.40;;;9.70;99.90;;;;;;4992874;28;20109;-69
2022/11/12 04:21:49;;;;;;;52.08;28.65;;;9.60;99.90;;;;;;4992998;28;20080;-70
2022/11/12 04:27:07;;;;;;;54.00;29.80;;;9.60;99.90;;;;;;4982794;28;20037;-70
2022/11/12 04:32:18;;;;;;;47.92;28.70;;;9.50;99.90;;;;;;4986029;28;20042;-75
2022/11/12 04:34:43;;;;;;;49.92;28.98;;;9.40;99.90;;;;;;4981080;28;20026;-70
2022/11/12 04:37:09;;;;;;;48.65;28.63;;;9.40;99.90;;;;;;4989817;28;20080;-70
2022/11/12 04:39:35;;;;;;;50.47;29.77;;;9.30;99.90;;;;;;4990577;28;20104;-69
2022/11/12 04:45:03;;;;;;;49.50;29.83;;;9.30;99.90;;;;;;4982600;28;20398;-69
2022/11/12 04:47:35;;;;;;;46.60;27.35;;;9.20;99.90;;;;;;4980904;28;21509;-70
2022/11/12 04:50:03;;;;;;;49.22;28.40;;;9.20;99.90;;;;;;4982806;28;20558;-70
2022/11/12 04:52:29;;;;;;;108.93;28.50;;;9.20;99.90;;;;;;4979852;28;20059;-70
2022/11/12 04:54:55;;;;;;;43.00;26.20;;;9.20;99.90;;;;;;4991066;28;20029;-70
2022/11/12 04:57:21;;;;;;;42.08;26.70;;;9.20;99.90;;;;;;4979183;28;20030;-72
2022/11/12 04:59:47;;;;;;;41.05;25.73;;;9.10;99.90;;;;;;4988563;28;20042;-70
2022/11/12 05:02:14;;;;;;;104.97;26.33;;;9.10;99.90;;;;;;4978084;28;20506;-70
2022/11/12 05:04:39;;;;;;;60.85;24.67;;;9.10;99.90;;;;;;4991745;28;20030;-69
2022/11/12 05:07:05;;;;;;;43.85;25.50;;;9.10;99.90;;;;;;4989015;28;20468;-70
2022/11/12 05:09:30;;;;;;;40.75;25.35;;;9.00;99.90;;;;;;4976266;28;20031;-70
2022/11/12 05:11:56;;;;;;;39.83;25.25;;;9.00;99.90;;;;;;4982856;28;20035;-69
2022/11/12 05:14:23;;;;;;;42.70;26.27;;;9.00;99.90;;;;;;4983587;28;20019;-71
2022/11/12 05:16:49;;;;;;;46.83;27.23;;;9.00;99.90;;;;;;4979929;28;20081;-69
2022/11/12 05:19:15;;;;;;;63.40;27.38;;;8.90;99.90;;;;;;4985465;28;20026;-70
2022/11/12 05:24:24;;;;;;;56.97;28.80;;;8.90;99.90;;;;;;4976948;28;20029;-71
2022/11/12 05:26:51;;;;;;;54.53;27.42;;;8.90;99.90;;;;;;4991247;28;20022;-70
2022/11/12 05:29:16;;;;;;;64.43;27.75;;;8.90;99.90;;;;;;4990489;28;20041;-71
2022/11/12 05:31:42;;;;;;;54.50;29.20;;;8.90;99.90;;;;;;4980215;28;20319;-73
2022/11/12 05:34:08;;;;;;;57.55;27.98;;;8.90;99.90;;;;;;4990954;28;20069;-69
2022/11/12 05:36:34;;;;;;;54.67;29.13;;;8.80;99.90;;;;;;4990779;28;20120;-69
2022/11/12 05:38:59;;;;;;;55.72;29.00;;;8.80;99.90;;;;;;4976584;28;20449;-71
2022/11/12 05:41:25;;;;;;;49.47;27.77;;;8.80;99.90;;;;;;4987776;28;20023;-71
2022/11/12 05:43:51;;;;;;;57.78;29.55;;;8.80;99.90;;;;;;4990955;28;20347;-72
2022/11/12 05:46:17;;;;;;;48.88;27.27;;;8.80;99.90;;;;;;4991396;28;20141;-70
2022/11/12 05:48:42;;;;;;;63.00;29.58;;;8.80;99.90;;;;;;4988697;28;20027;-71
2022/11/12 05:51:08;;;;;;;87.65;29.27;;;8.80;99.90;;;;;;4990525;28;20027;-69
2022/11/12 05:53:33;;;;;;;60.25;28.30;;;8.80;99.90;;;;;;4991415;28;20022;-71
2022/11/12 05:56:06;;;;;;;52.65;27.92;;;8.80;99.90;;;;;;4981255;28;20069;-70
2022/11/12 05:58:32;;;;;;;48.85;27.38;;;8.80;99.90;;;;;;4975129;28;20039;-70
2022/11/12 06:00:58;;;;;;;49.80;28.25;;;8.80;99.90;;;;;;4984189;28;20394;-70
2022/11/12 06:03:25;;;;;;;52.03;29.58;;;8.70;99.90;;;;;;4979729;28;20391;-70
2022/11/12 06:05:51;;;;;;;51.50;28.48;;;8.70;99.90;;;;;;4975603;28;20031;-70
2022/11/12 06:08:17;;;;;;;45.17;26.85;;;8.70;99.90;;;;;;4972901;28;20451;-72
2022/11/12 06:10:49;;;;;;;44.00;27.48;;;8.70;99.90;;;;;;4988784;28;20057;-71
2022/11/12 06:13:15;;;;;;;70.43;26.33;;;8.70;99.90;;;;;;4990686;28;20044;-70
2022/11/12 06:15:42;;;;;;;46.92;25.75;;;8.70;99.90;;;;;;4988912;28;20030;-70
2022/11/12 06:18:07;;;;;;;43.15;26.55;;;8.70;99.90;;;;;;4990513;28;20080;-69
2022/11/12 06:20:33;;;;;;;41.90;25.70;;;8.70;99.90;;;;;;4988980;28;20498;-70
2022/11/12 06:22:59;;;;;;;47.22;25.17;;;8.60;99.90;;;;;;4978745;28;20387;-72
2022/11/12 06:25:25;;;;;;;47.78;24.65;;;8.60;99.90;;;;;;4988417;28;20044;-69
2022/11/12 06:27:50;;;;;;;51.08;24.27;;;8.50;99.90;;;;;;4984172;28;20014;-70
2022/11/12 06:30:16;;;;;;;36.72;23.58;;;8.50;99.90;;;;;;4984849;28;20145;-69
2022/11/12 06:32:45;;;;;;;43.42;24.52;;;8.50;99.90;;;;;;4990101;28;20339;-71
2022/11/12 06:35:11;;;;;;;42.55;23.85;;;8.40;99.90;;;;;;4990863;28;20050;-70
2022/11/12 06:37:36;;;;;;;51.50;23.95;;;8.40;99.90;;;;;;4979631;28;20069;-72
2022/11/12 06:40:02;;;;;;;39.53;24.60;;;8.40;99.90;;;;;;4982682;28;20062;-69
2022/11/12 06:42:28;;;;;;;44.28;24.35;;;8.40;99.90;;;;;;4987779;28;20137;-70
2022/11/12 06:44:53;;;;;;;41.85;24.05;;;8.30;99.90;;;;;;4991641;28;20109;-70
2022/11/12 06:47:19;;;;;;;39.78;24.40;;;8.30;99.90;;;;;;4991464;28;20022;-71
2022/11/12 06:49:45;;;;;;;48.78;24.65;;;8.30;99.90;;;;;;4990119;28;20479;-72
2022/11/12 06:52:10;;;;;;;42.97;24.88;;;8.30;99.90;;;;;;4990932;28;20034;-70
2022/11/12 06:54:36;;;;;;;44.00;25.17;;;8.20;99.90;;;;;;4992806;28;20034;-72
2022/11/12 06:57:01;;;;;;;42.08;24.10;;;8.20;99.90;;;;;;4993842;28;20022;-71
2022/11/12 06:59:27;;;;;;;44.58;26.23;;;8.20;99.90;;;;;;4991032;28;20414;-69
2022/11/12 07:01:53;;;;;;;39.30;24.75;;;8.20;99.90;;;;;;4991115;28;20023;-70
2022/11/12 07:04:18;;;;;;;45.80;24.17;;;8.20;99.90;;;;;;4989615;28;20398;-74
2022/11/12 07:06:44;;;;;;;41.17;23.88;;;8.20;99.90;;;;;;4993770;28;20125;-71
2022/11/12 07:09:10;;;;;;;40.95;23.73;;;8.10;99.90;;;;;;4990117;28;20386;-71
2022/11/12 07:11:36;;;;;;;41.00;24.80;;;8.10;99.90;;;;;;4993969;28;20023;-71
2022/11/12 07:14:07;;;;;;;41.55;23.95;;;8.00;99.90;;;;;;4993189;28;20025;-72
2022/11/12 07:16:33;;;;;;;43.58;25.05;;;8.10;99.90;;;;;;4991135;28;20026;-71
2022/11/12 07:18:59;;;;;;;38.80;23.50;;;8.10;99.90;;;;;;4987307;28;20037;-71
2022/11/12 07:21:24;;;;;;;40.92;23.23;;;8.00;99.90;;;;;;4993266;28;20026;-70
2022/11/12 07:23:50;;;;;;;41.40;22.95;;;8.00;99.90;;;;;;4989796;28;20126;-71
2022/11/12 07:26:19;;;;;;;40.33;22.98;;;8.00;99.90;;;;;;4990800;28;20026;-70
2022/11/12 07:28:45;;;;;;;36.58;21.95;;;8.00;99.90;;;;;;4992661;28;20081;-71
2022/11/12 07:31:12;;;;;;;36.50;22.08;;;8.00;99.90;;;;;;4992262;28;20519;-70
2022/11/12 07:33:38;;;;;;;35.47;21.98;;;8.00;99.90;;;;;;4992280;28;20031;-72
2022/11/12 07:36:06;;;;;;;34.25;21.83;;;8.00;99.90;;;;;;4992976;28;20022;-70
2022/11/12 07:38:34;;;;;;;36.15;22.23;;;8.00;99.90;;;;;;4987704;28;20031;-71
2022/11/12 07:41:04;;;;;;;33.08;21.63;;;8.00;99.90;;;;;;4989303;28;20098;-70
2022/11/12 07:43:31;;;;;;;32.60;21.20;;;8.00;99.90;;;;;;4989703;28;20064;-71
2022/11/12 07:45:58;;;;;;;31.63;20.80;;;8.00;99.90;;;;;;4991768;28;20034;-70
2022/11/12 07:48:24;;;;;;;33.30;20.52;;;8.00;99.90;;;;;;4992371;28;20041;-71
2022/11/12 07:50:49;;;;;;;34.20;21.05;;;8.10;99.90;;;;;;4994221;28;20018;-71
2022/11/12 07:53:15;;;;;;;30.17;19.55;;;8.00;99.90;;;;;;4993413;28;20033;-70
2022/11/12 07:55:40;;;;;;;31.77;19.98;;;8.10;99.90;;;;;;4988079;28;20033;-71
2022/11/12 07:58:06;;;;;;;31.83;19.90;;;8.10;99.90;;;;;;4989089;28;20061;-72
2022/11/12 08:00:31;;;;;;;30.70;20.13;;;8.10;99.90;;;;;;4989752;28;20022;-72
2022/11/12 08:03:00;;;;;;;29.92;19.75;;;8.10;99.90;;;;;;4991408;28;20030;-71
2022/11/12 08:05:26;;;;;;;32.50;20.67;;;8.10;99.90;;;;;;4977914;28;20018;-70
2022/11/12 08:07:54;;;;;;;31.17;20.02;;;8.10;99.90;;;;;;4981870;28;20055;-71
2022/11/12 08:10:19;;;;;;;31.25;20.15;;;8.10;99.90;;;;;;4986706;28;20042;-71
2022/11/12 08:12:45;;;;;;;29.40;18.92;;;8.10;99.90;;;;;;4991176;28;20495;-72
2022/11/12 08:15:11;;;;;;;30.13;19.85;;;8.10;99.90;;;;;;4991382;28;20030;-70
2022/11/12 08:17:39;;;;;;;31.05;20.30;;;8.20;99.90;;;;;;4989394;28;20698;-70
2022/11/12 08:20:06;;;;;;;28.45;19.20;;;8.20;99.90;;;;;;4992856;28;20088;-71
2022/11/12 08:22:31;;;;;;;30.67;19.95;;;8.20;99.90;;;;;;4987947;28;20522;-71
2022/11/12 08:24:57;;;;;;;28.77;18.70;;;8.20;99.90;;;;;;4987740;28;20129;-70
2022/11/12 08:27:22;;;;;;;29.98;19.23;;;8.30;99.90;;;;;;4987592;28;20475;-70
2022/11/12 08:29:48;;;;;;;29.38;19.20;;;8.30;99.90;;;;;;4982918;28;20368;-71
2022/11/12 08:32:14;;;;;;;31.83;20.27;;;8.30;99.90;;;;;;4984362;28;20026;-70
2022/11/12 08:34:42;;;;;;;34.88;19.92;;;8.40;99.90;;;;;;4983849;28;20023;-71
2022/11/12 08:37:08;;;;;;;28.88;19.73;;;8.40;99.90;;;;;;4987511;28;20037;-73
2022/11/12 08:39:33;;;;;;;29.60;20.10;;;8.50;99.90;;;;;;4990644;28;20030;-71
2022/11/12 08:41:59;;;;;;;30.20;20.38;;;8.50;99.90;;;;;;4991837;28;20057;-71
2022/11/12 08:44:25;;;;;;;32.03;19.65;;;8.60;99.90;;;;;;4991533;28;20223;-72
2022/11/12 08:46:50;;;;;;;32.53;21.02;;;8.70;99.90;;;;;;4992492;28;20019;-71
2022/11/12 08:49:16;;;;;;;29.67;20.17;;;8.80;99.90;;;;;;4991484;28;20026;-71
2022/11/12 08:51:41;;;;;;;28.17;19.35;;;8.80;99.90;;;;;;4992058;28;20049;-70
2022/11/12 08:54:07;;;;;;;32.67;20.85;;;8.90;99.90;;;;;;4990743;28;20054;-71
2022/11/12 08:56:33;;;;;;;30.80;20.73;;;9.00;99.90;;;;;;4986006;28;20026;-71
2022/11/12 08:58:59;;;;;;;28.40;19.63;;;9.00;99.90;;;;;;4987249;28;20035;-70
2022/11/12 09:01:24;;;;;;;30.58;18.85;;;9.10;99.90;;;;;;4984729;28;20037;-71
2022/11/12 09:03:50;;;;;;;28.98;19.08;;;9.20;99.90;;;;;;4991880;28;20054;-72
2022/11/12 09:06:16;;;;;;;29.77;19.15;;;9.30;99.90;;;;;;4989274;28;20037;-71
2022/11/12 09:08:41;;;;;;;26.33;18.70;;;9.30;99.90;;;;;;4987632;28;20049;-70
2022/11/12 09:11:07;;;;;;;28.85;18.60;;;9.50;99.90;;;;;;4992059;28;20101;-71
2022/11/12 09:13:33;;;;;;;26.60;17.92;;;9.60;99.90;;;;;;4978528;28;20061;-70
2022/11/12 09:16:01;;;;;;;25.23;17.05;;;9.70;99.90;;;;;;4988264;28;20035;-71
2022/11/12 09:18:27;;;;;;;25.40;17.38;;;9.70;99.90;;;;;;4982166;28;20101;-70
2022/11/12 09:20:52;;;;;;;24.33;17.00;;;9.80;99.90;;;;;;4991407;28;20026;-73
2022/11/12 09:23:18;;;;;;;21.77;15.38;;;9.90;99.90;;;;;;4991832;28;20022;-71
2022/11/12 09:25:44;;;;;;;23.45;15.48;;;10.00;99.90;;;;;;4991320;28;20030;-71
2022/11/12 09:28:17;;;;;;;22.38;15.73;;;10.10;99.90;;;;;;4983842;28;20026;-71
2022/11/12 09:30:47;;;;;;;25.23;15.77;;;10.20;99.90;;;;;;4972670;28;20114;-70
2022/11/12 09:33:14;;;;;;;24.45;16.08;;;10.30;99.90;;;;;;4990139;28;20034;-72
2022/11/12 09:35:40;;;;;;;23.80;16.92;;;10.40;99.90;;;;;;4991480;28;20418;-70
2022/11/12 09:38:05;;;;;;;28.80;17.25;;;10.50;99.90;;;;;;4982014;28;20034;-70
2022/11/12 09:40:50;;;;;;;27.15;16.48;;;10.60;99.90;;;;;;4985338;28;20018;-71
2022/11/12 09:43:40;;;;;;;25.08;16.52;;;10.70;99.90;;;;;;4971554;28;20055;-71
2022/11/12 09:46:15;;;;;;;23.15;15.50;;;10.80;99.90;;;;;;4990194;28;20467;-70
2022/11/12 09:48:46;;;;;;;;;;;10.90;99.90;;;;;;4991923;28;20322;-70
2022/11/12 09:51:25;;;;;;;24.98;16.58;;;11.00;99.90;;;;;;4991080;28;19906;-71
2022/11/12 09:53:57;;;;;;;23.63;16.25;;;11.00;99.90;;;;;;4984126;28;20113;-70
2022/11/12 09:56:24;;;;;;;24.52;16.50;;;11.10;99.90;;;;;;4978038;28;20115;-71
2022/11/12 09:58:51;;;;;;;23.77;16.38;;;11.20;99.90;;;;;;4990040;28;20034;-71
2022/11/12 10:01:29;;;;;;;22.92;15.43;;;11.30;99.90;;;;;;4991055;28;20084;-72
2022/11/12 10:04:13;;;;;;;28.90;16.90;;;11.40;99.90;;;;;;4990273;28;20033;-72
2022/11/12 10:07:10;;;;;;;24.67;16.10;;;11.50;99.90;;;;;;4990481;28;20053;-71
2022/11/12 10:10:02;;;;;;;24.60;15.52;;;11.70;99.90;;;;;;4985407;28;20567;-71
2022/11/12 10:12:52;;;;;;;20.95;14.38;;;11.80;99.90;;;;;;4983670;28;20030;-72
2022/11/12 10:18:48;;;;;;;21.08;13.93;;;12.00;99.90;;;;;;4983565;28;20475;-72
2022/11/12 10:21:29;;;;;;;21.13;13.50;;;12.10;99.90;;;;;;4971272;28;20376;-72
2022/11/12 10:23:57;;;;;;;21.52;12.98;;;12.20;99.90;;;;;;4990560;28;20034;-72
2022/11/12 10:26:25;;;;;;;19.92;12.45;;;12.30;99.90;;;;;;4990681;28;20481;-71
2022/11/12 10:28:56;;;;;;;20.33;11.68;;;12.30;99.90;;;;;;4990549;28;20092;-71
2022/11/12 10:31:22;;;;;;;15.90;10.63;;;12.40;99.90;;;;;;4977351;28;20026;-72
2022/11/12 10:33:47;;;;;;;16.33;10.52;;;12.50;99.90;;;;;;4979887;28;20049;-75
2022/11/12 10:36:19;;;;;;;14.85;10.63;;;12.60;99.90;;;;;;4990214;28;20258;-72
2022/11/12 10:38:49;;;;;;;15.55;10.32;;;12.70;99.90;;;;;;4989568;28;20034;-71
2022/11/12 10:41:32;;;;;;;14.35;9.75;;;12.80;99.90;;;;;;4978105;28;20379;-72
2022/11/12 10:44:00;;;;;;;12.48;8.95;;;12.90;99.90;;;;;;4980314;28;20073;-73
2022/11/12 10:46:32;;;;;;;14.13;9.25;;;13.00;99.90;;;;;;4985405;28;20042;-72
2022/11/12 10:49:01;;;;;;;13.70;8.07;;;13.10;99.90;;;;;;4989496;28;20045;-72
2022/11/12 10:51:33;;;;;;;12.70;8.55;;;13.10;99.90;;;;;;4997825;28;20145;-74
2022/11/12 10:54:21;;;;;;;14.93;8.95;;;13.20;99.90;;;;;;4998929;28;20122;-75
2022/11/12 10:56:48;;;;;;;12.50;8.13;;;13.40;99.90;;;;;;5002753;28;20026;-75
2022/11/12 10:59:22;;;;;;;12.48;9.05;;;13.50;99.90;;;;;;5004490;28;20466;-75
2022/11/12 11:01:57;;;;;;;12.30;9.43;;;13.50;99.90;;;;;;4998665;28;20068;-75
2022/11/12 11:04:34;;;;;;;13.13;9.55;;;13.60;99.90;;;;;;4999489;28;20027;-74
2022/11/12 11:07:22;;;;;;;12.45;9.07;;;13.80;99.90;;;;;;4993797;28;20034;-74
2022/11/12 11:09:52;;;;;;;11.10;8.98;;;13.80;99.90;;;;;;4993395;28;20109;-74
2022/11/12 11:12:27;;;;;;;14.23;9.40;;;13.90;99.90;;;;;;4995629;28;20046;-74
2022/11/12 11:15:10;;;;;;;14.45;8.98;;;14.00;99.90;;;;;;4993714;28;20359;-75
2022/11/12 11:17:36;;;;;;;12.57;8.75;;;14.00;99.90;;;;;;5021646;28;20037;-74
2022/11/12 11:20:14;;;;;;;12.90;8.77;;;14.10;99.90;;;;;;4989355;28;20034;-74
2022/11/12 11:22:48;;;;;;;10.95;8.20;;;14.20;99.90;;;;;;4984673;28;20042;-75
2022/11/12 11:25:27;;;;;;;12.57;7.28;;;14.20;99.90;;;;;;4998543;28;20027;-75
2022/11/12 11:27:55;;;;;;;13.68;7.57;;;14.30;99.90;;;;;;4997716;28;20060;-74
2022/11/12 11:30:22;;;;;;;11.10;7.07;;;14.30;99.90;;;;;;4996811;28;20018;-74
2022/11/12 11:33:19;;;;;;;9.35;6.22;;;14.40;99.90;;;;;;4998093;28;20026;-75
2022/11/12 11:36:08;;;;;;;8.90;6.10;;;14.50;99.90;;;;;;5005655;28;20031;-74
2022/11/12 11:38:48;;;;;;;9.52;6.53;;;14.60;99.90;;;;;;4994642;28;20068;-73
2022/11/12 11:41:41;;;;;;;8.70;5.78;;;14.60;99.90;;;;;;4998382;28;20049;-74
2022/11/12 11:44:29;;;;;;;6.15;4.93;;;14.70;99.90;;;;;;5006250;28;20039;-73
2022/11/12 11:47:23;;;;;;;8.15;5.00;;;14.70;99.90;;;;;;4992211;28;20430;-74
2022/11/12 11:50:16;;;;;;;8.00;4.80;;;14.80;99.90;;;;;;4996478;28;20053;-74
2022/11/12 11:52:50;;;;;;;7.00;4.78;;;14.80;99.90;;;;;;4985802;28;20409;-74
2022/11/12 11:55:37;;;;;;;5.97;4.40;;;14.80;99.90;;;;;;4996723;28;20037;-74
2022/11/12 11:58:18;;;;;;;6.82;3.83;;;14.80;99.90;;;;;;4989328;28;20034;-74
2022/11/12 12:00:54;;;;;;;5.70;3.80;;;14.80;99.90;;;;;;4998027;28;20039;-74
2022/11/12 12:03:35;;;;;;;7.57;3.97;;;14.80;99.90;;;;;;4999325;28;20057;-75
2022/11/12 12:06:12;;;;;;;5.20;3.72;;;14.90;99.90;;;;;;4987302;28;20023;-74
2022/11/12 12:08:47;;;;;;;4.43;3.08;;;15.00;99.90;;;;;;4990684;28;20086;-74
2022/11/12 12:11:50;;;;;;;5.68;3.22;;;15.00;99.90;;;;;;4987250;28;20029;-74
2022/11/12 12:14:27;;;;;;;5.38;3.28;;;15.10;99.90;;;;;;4991304;28;20030;-73
2022/11/12 12:17:03;;;;;;;5.22;3.25;;;15.10;99.90;;;;;;4994458;28;20046;-74
2022/11/12 12:19:55;;;;;;;6.38;3.85;;;15.20;99.90;;;;;;4991637;28;20100;-71
2022/11/12 12:22:36;;;;;;;6.35;3.80;;;15.30;99.90;;;;;;4990584;28;20034;-71
2022/11/12 12:25:25;;;;;;;6.05;4.03;;;15.40;99.90;;;;;;4992143;28;20030;-71
2022/11/12 12:28:20;;;;;;;6.15;4.07;;;15.50;99.90;;;;;;4985955;28;20476;-70
2022/11/12 12:30:51;;;;;;;6.70;3.70;;;15.50;99.90;;;;;;4973141;28;20122;-70
2022/11/12 12:33:28;;;;;;;5.57;3.72;;;15.50;99.90;;;;;;4990865;28;20034;-71
2022/11/12 12:36:26;;;;;;;5.72;3.35;;;15.60;99.90;;;;;;4987062;28;20036;-71
2022/11/12 12:39:13;;;;;;;5.47;3.55;;;15.70;99.90;;;;;;4961871;28;20042;-71
2022/11/12 12:41:50;;;;;;;6.03;3.92;;;15.70;99.90;;;;;;4981507;28;20055;-71
2022/11/12 12:44:16;;;;;;;8.18;5.05;;;15.70;99.90;;;;;;4988227;28;20037;-71
2022/11/12 12:46:46;;;;;;;7.93;5.53;;;15.70;99.90;;;;;;4980939;28;20026;-71
2022/11/12 12:49:20;;;;;;;10.93;5.30;;;15.80;99.90;;;;;;4972832;28;20683;-72
2022/11/12 12:51:46;;;;;;;9.15;5.90;;;15.80;99.90;;;;;;4983972;28;20375;-71
2022/11/12 12:54:53;;;;;;;9.32;6.03;;;15.80;99.90;;;;;;4990127;28;20033;-71
2022/11/12 12:57:35;;;;;;;8.13;6.03;;;15.90;99.90;;;;;;4973661;28;20031;-73
2022/11/12 13:00:24;;;;;;;10.00;5.47;;;15.90;99.90;;;;;;4986408;28;20490;-72
2022/11/12 13:02:51;;;;;;;9.55;6.30;;;16.00;99.90;;;;;;5006766;28;20037;-71
2022/11/12 13:05:28;;;;;;;6.93;5.53;;;16.00;99.90;;;;;;4991043;28;20026;-71
2022/11/12 13:07:57;;;;;;;9.27;6.07;;;16.00;99.90;;;;;;4991412;28;20172;-71
2022/11/12 13:10:38;;;;;;;10.45;6.72;;;16.00;99.90;;;;;;4987779;28;20509;-70
2022/11/12 13:13:25;;;;;;;10.85;7.45;;;16.00;99.90;;;;;;4985905;28;20363;-71
2022/11/12 13:15:53;;;;;;;12.75;8.48;;;16.00;99.90;;;;;;4990696;28;20105;-71
2022/11/12 13:18:50;;;;;;;11.32;7.55;;;15.90;99.90;;;;;;4980180;28;20046;-71
2022/11/12 13:21:17;;;;;;;11.73;8.10;;;15.90;99.90;;;;;;4972095;28;20383;-71